Ulan Bator, Mongolia
Current Conditions -  °F | °C
As of 2:00 AM on Saturday 01 Nov 2014 (Local Time) from ZMUB Reporting Station
Clear Clear  
Wind Chill: -18°   Ceiling: Unl
Heat Index: -12°   Visibility: 6mi
Dew Point: -15°   Wind: 7mph
Humidity: 79%   Direction: 180°S
Pressure: 30.09"   Gusts: NA
Location:  47.92°N, 106.91°E
Report Text: ZMUB 311800Z 18003MPS CAVOK M12/M15 Q1019 NOSIG RMK QFE656.9 81
Loading
Personal Weather Stations






























Interactive Weather Map New forecast layout! Learn more

10-Day Weather Forecast

Advertisements
Track Severe Weather on mobile